Time;durP1;ratioP1;P1;durP2;ratioP2;P2;SDS_P1;SDS_P2;PMS_P1;PMS_P2;Temp;Humidity;BMP_temperature;BMP_pressure;BME280_temperature;BME280_humidity;BME280_pressure;Samples;Min_cycle;Max_cycle;Signal;HPM_P1;HPM_P2
2022/10/15 00:03:05;;;;;;;1.35;0.60;;;;;;;10.57;100.00;101390.44;10591537;27;20513;-77
2022/10/15 00:08:09;;;;;;;0.90;0.75;;;;;;;10.54;100.00;101391.22;10636850;27;20050;-76
2022/10/15 00:13:10;;;;;;;1.45;0.70;;;;;;;10.46;100.00;101390.06;10601661;27;20405;-77
2022/10/15 00:18:12;;;;;;;1.30;0.88;;;;;;;10.40;100.00;101387.28;10603224;27;20046;-78
2022/10/15 00:23:13;;;;;;;0.95;0.85;;;;;;;10.34;100.00;101394.78;10603879;27;20051;-77
2022/10/15 00:28:15;;;;;;;0.88;0.80;;;;;;;10.38;100.00;101402.72;10618667;27;20414;-77
2022/10/15 00:33:17;;;;;;;0.35;0.35;;;;;;;10.28;100.00;101392.88;10620167;27;20035;-78
2022/10/15 00:38:20;;;;;;;1.10;0.68;;;;;;;10.35;100.00;101383.66;10604346;27;20398;-77
2022/10/15 00:43:51;;;;;;;1.58;0.77;;;;;;;10.20;100.00;101391.72;10600960;27;20119;-78
2022/10/15 00:49:17;;;;;;;0.88;0.77;;;;;;;10.14;100.00;101400.97;10603149;27;20436;-77
2022/10/15 00:54:20;;;;;;;1.27;0.88;;;;;;;10.08;100.00;101400.78;10623305;27;20035;-77
2022/10/15 00:59:24;;;;;;;0.55;0.47;;;;;;;10.04;100.00;101398.88;10608066;27;20095;-77
2022/10/15 01:04:28;;;;;;;0.65;0.45;;;;;;;10.07;100.00;101405.84;10608593;27;20038;-77
2022/10/15 01:09:30;;;;;;;0.35;0.35;;;;;;;10.04;100.00;101408.31;10612395;27;20465;-77
2022/10/15 01:14:43;;;;;;;1.35;0.80;;;;;;;10.01;100.00;101388.50;10627121;27;20039;-77
2022/10/15 01:20:15;;;;;;;0.50;0.32;;;;;;;9.95;100.00;101386.56;10590770;27;20050;-77
2022/10/15 01:25:46;;;;;;;0.13;0.10;;;;;;;9.86;100.00;101375.94;10593166;27;20039;-77
2022/10/15 01:31:01;;;;;;;1.00;0.47;;;;;;;9.81;100.00;101378.34;10606394;27;20051;-78
2022/10/15 01:36:32;;;;;;;0.10;0.10;;;;;;;9.68;100.00;101379.56;10591616;27;20047;-77
2022/10/15 01:41:45;;;;;;;0.40;0.40;;;;;;;9.62;100.00;101378.50;10586714;27;20047;-77
2022/10/15 01:46:54;;;;;;;1.63;0.20;;;;;;;9.65;100.00;101368.28;10604705;27;20110;-77
2022/10/15 01:51:59;;;;;;;0.50;0.40;;;;;;;9.49;100.00;101361.72;10606560;27;20043;-77
2022/10/15 01:57:05;;;;;;;0.20;0.20;;;;;;;9.49;100.00;101352.28;10606592;27;20069;-77
2022/10/15 02:02:07;;;;;;;0.43;0.28;;;;;;;9.55;100.00;101356.78;10606160;27;20083;-77
2022/10/15 02:07:22;;;;;;;0.20;0.20;;;;;;;9.49;100.00;101347.13;10610412;27;20130;-78
2022/10/15 02:12:30;;;;;;;0.63;0.55;;;;;;;9.43;100.00;101334.06;10605679;27;20051;-77
2022/10/15 02:17:39;;;;;;;0.32;0.22;;;;;;;9.19;100.00;101319.47;10583802;27;20039;-77
2022/10/15 02:22:57;;;;;;;0.47;0.40;;;;;;;9.19;100.00;101316.91;10606240;27;20065;-77
2022/10/15 02:27:59;;;;;;;0.22;0.22;;;;;;;9.31;100.00;101321.63;10605235;27;20043;-77
2022/10/15 02:33:01;;;;;;;0.50;0.43;;;;;;;9.27;100.00;101319.75;10624069;27;20570;-77
2022/10/15 02:38:06;;;;;;;0.20;0.10;;;;;;;9.33;100.00;101308.84;10604784;28;20051;-77
2022/10/15 02:43:11;;;;;;;0.43;0.40;;;;;;;9.31;100.00;101313.03;10588242;28;20065;-77
2022/10/15 02:48:13;;;;;;;1.02;0.50;;;;;;;9.36;100.00;101303.78;10604604;28;20044;-77
2022/10/15 02:53:14;;;;;;;0.10;0.10;;;;;;;9.30;100.00;101307.03;10623051;28;20099;-77
2022/10/15 02:58:17;;;;;;;0.75;0.50;;;;;;;9.38;100.00;101307.31;10604620;28;20079;-77
2022/10/15 03:03:20;;;;;;;1.35;0.90;;;;;;;9.53;100.00;101301.88;10604980;28;20062;-77
2022/10/15 03:08:22;;;;;;;0.95;0.93;;;;;;;9.64;100.00;101304.81;10589983;28;20490;-77
2022/10/15 03:13:23;;;;;;;2.38;1.27;;;;;;;9.69;100.00;101287.84;10604840;28;20096;-77
2022/10/15 03:18:26;;;;;;;2.15;0.88;;;;;;;9.80;100.00;101304.53;10604400;27;20492;-77
2022/10/15 03:23:28;;;;;;;1.10;1.00;;;;;;;9.88;100.00;101296.19;10612283;27;20039;-77
2022/10/15 03:28:42;;;;;;;0.45;0.45;;;;;;;9.97;100.00;101301.69;10598051;27;20442;-77
2022/10/15 03:33:47;;;;;;;1.35;0.95;;;;;;;9.96;100.00;101298.25;10569898;28;20494;-77
2022/10/15 03:38:51;;;;;;;1.48;1.10;;;;;;;9.96;100.00;101282.81;10603120;27;20138;-78
2022/10/15 03:43:53;;;;;;;0.40;0.40;;;;;;;10.00;100.00;101284.63;10606811;27;20035;-77
2022/10/15 03:48:55;;;;;;;0.98;0.70;;;;;;;9.99;100.00;101277.75;10594945;27;20082;-77
2022/10/15 03:53:56;;;;;;;1.30;0.95;;;;;;;10.04;100.00;101269.31;10611570;27;20466;-77
2022/10/15 03:59:02;;;;;;;1.38;1.17;;;;;;;10.11;100.00;101285.00;10610913;27;20141;-77
2022/10/15 04:04:04;;;;;;;3.83;2.05;;;;;;;10.14;100.00;101277.41;10594683;27;20267;-77
2022/10/15 04:09:06;;;;;;;0.85;0.63;;;;;;;10.16;100.00;101286.03;10619722;27;20043;-77
2022/10/15 04:14:08;;;;;;;1.27;0.70;;;;;;;10.27;100.00;101282.94;10611206;27;20130;-77
2022/10/15 04:19:09;;;;;;;2.75;1.33;;;;;;;10.20;100.00;101291.28;10615027;27;20052;-77
2022/10/15 04:24:13;;;;;;;2.30;0.80;;;;;;;10.26;100.00;101292.38;10633630;27;20049;-77
2022/10/15 04:29:15;;;;;;;1.77;1.30;;;;;;;10.30;100.00;101298.50;10611761;27;20138;-78
2022/10/15 04:34:17;;;;;;;2.30;0.82;;;;;;;10.40;100.00;101304.88;10609893;27;20486;-78
2022/10/15 04:39:19;;;;;;;1.50;0.90;;;;;;;10.50;100.00;101311.19;10627936;27;20031;-78
2022/10/15 04:44:20;;;;;;;1.83;1.58;;;;;;;10.48;100.00;101312.00;10609371;27;20050;-78
2022/10/15 04:49:27;;;;;;;0.93;0.57;;;;;;;10.63;100.00;101321.97;10609315;27;20055;-78
2022/10/15 04:54:29;;;;;;;1.17;1.08;;;;;;;10.63;100.00;101323.66;10592682;27;20049;-79
2022/10/15 04:59:37;;;;;;;1.30;0.82;;;;;;;10.68;100.00;101322.13;10592688;27;20048;-78
2022/10/15 05:05:08;;;;;;;1.52;1.13;;;;;;;10.82;100.00;101330.28;10609872;27;20051;-78
2022/10/15 05:10:19;;;;;;;1.45;1.35;;;;;;;10.88;100.00;101324.44;10594442;27;20107;-78
2022/10/15 05:15:25;;;;;;;1.52;1.35;;;;;;;10.91;100.00;101332.25;10597863;27;20501;-78
2022/10/15 05:20:26;;;;;;;1.77;1.60;;;;;;;10.94;100.00;101340.09;10593282;27;20050;-78
2022/10/15 05:25:28;;;;;;;4.72;1.30;;;;;;;10.98;100.00;101341.97;10608424;27;20027;-79
2022/10/15 05:30:33;;;;;;;2.65;1.40;;;;;;;10.97;100.00;101336.72;10586040;27;20054;-78
2022/10/15 05:35:36;;;;;;;2.22;1.67;;;;;;;10.94;100.00;101340.09;10610532;27;20489;-78
2022/10/15 05:40:38;;;;;;;2.75;1.85;;;;;;;10.96;100.00;101341.03;10579771;27;20447;-78
2022/10/15 05:45:54;;;;;;;2.80;1.35;;;;;;;10.98;100.00;101352.28;10596248;27;20043;-78
2022/10/15 05:51:01;;;;;;;4.25;1.17;;;;;;;10.99;100.00;101354.00;10620642;27;20046;-78
2022/10/15 05:56:04;;;;;;;1.50;1.10;;;;;;;11.03;100.00;101355.84;10607257;27;20088;-78
2022/10/15 06:01:09;;;;;;;4.47;1.73;;;;;;;11.12;100.00;101365.56;10606867;27;20039;-78
2022/10/15 06:06:13;;;;;;;1.88;1.35;;;;;;;11.18;100.00;101359.75;10607119;27;20039;-77
2022/10/15 06:11:16;;;;;;;0.93;0.70;;;;;;;11.25;100.00;101369.41;10624684;27;20125;-78
2022/10/15 06:16:18;;;;;;;1.42;0.88;;;;;;;11.38;100.00;101384.44;10624708;27;20081;-78
2022/10/15 06:21:24;;;;;;;4.72;2.85;;;;;;;11.51;100.00;101389.94;10605980;27;20477;-78
2022/10/15 06:26:26;;;;;;;5.22;3.50;;;;;;;11.57;100.00;101395.31;10606283;27;20122;-78
2022/10/15 06:31:27;;;;;;;5.43;1.75;;;;;;;11.63;100.00;101400.66;10605447;27;20516;-78
2022/10/15 06:36:29;;;;;;;8.43;2.13;;;;;;;11.71;100.00;101399.19;10605637;27;20043;-78
2022/10/15 06:41:30;;;;;;;7.30;3.17;;;;;;;11.76;100.00;101409.63;10621390;27;20498;-79
2022/10/15 06:46:32;;;;;;;3.60;2.08;;;;;;;11.83;100.00;101408.09;10615578;27;20051;-79
2022/10/15 06:51:36;;;;;;;3.78;2.17;;;;;;;11.90;100.00;101425.50;10600610;28;20216;-78
2022/10/15 06:56:40;;;;;;;5.45;1.73;;;;;;;11.95;100.00;101423.06;10607005;27;20380;-79
2022/10/15 07:01:42;;;;;;;3.53;2.08;;;;;;;11.91;100.00;101432.44;10609137;27;20142;-79
2022/10/15 07:06:44;;;;;;;4.18;2.28;;;;;;;11.99;100.00;101430.13;10621114;27;20039;-79
2022/10/15 07:11:45;;;;;;;4.22;2.38;;;;;;;11.99;100.00;101425.81;10628155;27;20262;-78
2022/10/15 07:16:48;;;;;;;2.42;1.45;;;;;;;11.98;100.00;101420.63;10600331;27;20118;-78
2022/10/15 07:21:50;;;;;;;1.88;1.65;;;;;;;11.99;100.00;101430.97;10628076;27;20438;-78
2022/10/15 07:26:51;;;;;;;2.67;2.05;;;;;;;11.98;100.00;101434.38;10610168;27;20124;-78
2022/10/15 07:31:53;;;;;;;2.90;1.77;;;;;;;12.00;100.00;101450.81;10609333;27;20039;-79
2022/10/15 07:36:54;;;;;;;1.50;1.02;;;;;;;12.02;100.00;101441.41;10622388;27;20035;-77
2022/10/15 07:41:56;;;;;;;2.03;1.30;;;;;;;12.05;100.00;101444.06;10614429;27;20137;-78
2022/10/15 07:46:58;;;;;;;7.80;2.28;;;;;;;12.08;100.00;101455.31;10625193;27;20043;-79
2022/10/15 07:51:59;;;;;;;3.22;1.85;;;;;;;12.14;100.00;101446.00;10601631;27;20035;-79
2022/10/15 07:57:02;;;;;;;1.88;1.67;;;;;;;12.17;100.00;101442.66;10624675;27;20068;-81
2022/10/15 08:02:04;;;;;;;2.13;1.27;;;;;;;12.29;100.00;101444.69;10585779;27;20043;-79
2022/10/15 08:07:06;;;;;;;4.43;2.17;;;;;;;12.35;100.00;101443.16;10609704;27;20125;-79
2022/10/15 08:12:10;;;;;;;1.10;0.80;;;;;;;12.41;100.00;101439.88;10603794;28;20047;-79
2022/10/15 08:17:12;;;;;;;1.75;1.45;;;;;;;12.51;100.00;101446.16;10604134;28;20502;-79
2022/10/15 08:22:14;;;;;;;2.38;1.90;;;;;;;12.49;100.00;101450.41;10603888;28;20070;-80
2022/10/15 08:27:15;;;;;;;1.45;0.93;;;;;;;12.60;100.00;101450.69;10603097;28;20067;-80
2022/10/15 08:32:17;;;;;;;6.93;2.55;;;;;;;12.59;100.00;101443.75;10621810;28;20518;-79
2022/10/15 08:37:18;;;;;;;2.78;1.58;;;;;;;12.68;100.00;101450.06;10592626;28;20046;-79
2022/10/15 08:42:34;;;;;;;2.13;1.23;;;;;;;12.89;100.00;101451.44;10619688;28;20082;-79
2022/10/15 08:47:42;;;;;;;5.68;2.72;;;;;;;12.98;100.00;101454.28;10575894;28;20047;-79
2022/10/15 08:52:45;;;;;;;4.50;1.98;;;;;;;13.06;100.00;101446.69;10602437;28;20035;-79
2022/10/15 08:57:59;;;;;;;6.30;1.35;;;;;;;13.21;100.00;101419.44;10602243;28;20054;-79
2022/10/15 09:03:09;;;;;;;0.82;0.80;;;;;;;13.85;100.00;101404.47;10623243;28;20043;-79
2022/10/15 09:08:19;;;;;;;1.80;1.67;;;;;;;14.31;100.00;101373.38;10585131;27;437478;-79
2022/10/15 09:13:29;;;;;;;2.92;2.15;;;;;;;14.11;100.00;101323.81;10602802;27;20292;-79
2022/10/15 09:18:34;;;;;;;3.80;2.78;;;;;;;14.13;100.00;101270.28;10620782;27;20051;-78
2022/10/15 09:23:37;;;;;;;3.75;1.83;;;;;;;14.82;100.00;101210.00;10620123;27;20035;-77
2022/10/15 09:28:50;;;;;;;5.65;3.20;;;;;;;14.81;100.00;101126.13;10601617;27;20497;-78
2022/10/15 09:34:19;;;;;;;2.30;1.55;;;;;;;14.74;100.00;101043.91;10602481;27;20070;-78
2022/10/15 09:39:50;;;;;;;4.43;1.77;;;;;;;14.63;100.00;101011.78;10581839;27;20047;-78
2022/10/15 09:44:53;;;;;;;1.75;1.20;;;;;;;14.76;100.00;100987.75;10583870;27;20039;-78
2022/10/15 09:49:55;;;;;;;2.25;1.23;;;;;;;14.73;100.00;100982.53;10601860;27;20057;-78
2022/10/15 09:55:30;;;;;;;2.08;1.70;;;;;;;14.79;100.00;100966.16;10620764;27;20043;-79
2022/10/15 10:01:03;;;;;;;2.70;1.77;;;;;;;14.68;100.00;100953.94;10589965;27;20111;-78
2022/10/15 10:06:11;;;;;;;3.33;2.13;;;;;;;14.64;100.00;100951.28;10583407;27;20058;-78
2022/10/15 10:11:19;;;;;;;3.45;2.03;;;;;;;14.84;100.00;100916.06;10607100;27;20119;-76
2022/10/15 10:16:22;;;;;;;2.30;1.35;;;;;;;15.02;100.00;100923.13;10624841;27;20077;-77
2022/10/15 10:21:29;;;;;;;1.85;1.63;;;;;;;15.01;100.00;100890.25;10624844;27;20047;-76
2022/10/15 10:26:34;;;;;;;3.55;1.35;;;;;;;15.55;100.00;100859.44;10624600;27;20122;-77
2022/10/15 10:31:41;;;;;;;1.23;0.88;;;;;;;15.32;100.00;100848.06;10605822;27;20545;-76
2022/10/15 10:36:50;;;;;;;1.45;1.35;;;;;;;15.17;100.00;100854.91;10623907;27;20087;-77
2022/10/15 10:41:57;;;;;;;0.80;0.77;;;;;;;15.22;100.00;100863.59;10606146;28;20075;-77
2022/10/15 10:47:20;;;;;;;1.25;0.47;;;;;;;15.27;100.00;100867.94;10624047;28;20070;-77
2022/10/15 10:52:35;;;;;;;0.65;0.57;;;;;;;15.08;100.00;100896.34;10577352;28;20047;-76
2022/10/15 10:57:47;;;;;;;2.42;0.90;;;;;;;14.83;100.00;100931.59;10641254;28;20076;-77
2022/10/15 11:02:52;;;;;;;0.60;0.57;;;;;;;14.84;100.00;100974.84;10595833;28;20516;-77
2022/10/15 11:08:18;;;;;;;4.22;2.08;;;;;;;14.74;100.00;101005.00;10612402;28;20042;-77
2022/10/15 11:13:34;;;;;;;1.45;1.08;;;;;;;14.60;100.00;101034.22;10604927;28;20042;-77
2022/10/15 11:18:53;;;;;;;0.88;0.77;;;;;;;14.52;100.00;101054.00;10623057;28;20035;-77
2022/10/15 11:24:07;;;;;;;0.50;0.50;;;;;;;14.46;100.00;101066.91;10622826;28;20078;-77
2022/10/15 11:29:15;;;;;;;0.50;0.32;;;;;;;14.52;100.00;101076.47;10604555;28;20070;-76
2022/10/15 11:35:01;;;;;;;2.33;0.60;;;;;;;14.45;100.00;101114.41;10603240;28;20039;-77
2022/10/15 11:40:24;;;;;;;0.40;0.30;;;;;;;14.33;100.00;101122.03;10597983;28;20402;-77
2022/10/15 11:45:42;;;;;;;0.32;0.28;;;;;;;14.36;100.00;101132.41;10584664;27;20050;-77
2022/10/15 11:50:54;;;;;;;0.55;0.38;;;;;;;14.47;100.00;101145.53;10606138;27;20092;-77
2022/10/15 11:56:03;;;;;;;0.85;0.38;;;;;;;14.41;100.00;101141.13;10625545;27;20454;-78
2022/10/15 12:01:14;;;;;;;0.83;0.20;;;;;;;14.48;100.00;101168.91;10615150;27;20087;-77
2022/10/15 12:06:20;;;;;;;0.93;0.47;;;;;;;14.39;100.00;101176.53;10610406;27;20129;-77
2022/10/15 12:11:47;;;;;;;0.57;0.40;;;;;;;14.48;100.00;101184.47;10628375;27;20126;-76
2022/10/15 12:17:00;;;;;;;0.38;0.35;;;;;;;14.56;100.00;101188.00;10627915;27;20058;-78
2022/10/15 12:22:10;;;;;;;0.00;0.00;;;;;;;14.52;100.00;101188.81;10607828;27;20138;-77
2022/10/15 12:27:22;;;;;;;0.57;0.30;;;;;;;14.59;100.00;101190.66;10611114;27;20043;-79
2022/10/15 12:32:30;;;;;;;0.00;0.00;;;;;;;14.69;100.00;101193.41;10610091;27;20142;-78
2022/10/15 12:37:35;;;;;;;0.30;0.25;;;;;;;14.74;100.00;101194.34;10618928;27;20122;-78
2022/10/15 12:42:38;;;;;;;0.88;0.52;;;;;;;14.83;100.00;101198.75;10624370;27;20066;-79
2022/10/15 12:47:53;;;;;;;0.28;0.15;;;;;;;14.93;100.00;101195.44;10609228;27;20126;-79
2022/10/15 12:53:04;;;;;;;0.20;0.20;;;;;;;14.95;100.00;101192.84;10619452;27;20062;-77
2022/10/15 12:58:33;;;;;;;0.45;0.10;;;;;;;15.14;100.00;101196.53;10608743;27;20076;-78
2022/10/15 13:04:12;;;;;;;0.85;0.40;;;;;;;15.26;100.00;101195.81;10607926;27;20459;-77
2022/10/15 13:09:48;;;;;;;0.57;0.30;;;;;;;15.26;100.00;101195.81;10548835;27;20051;-78
2022/10/15 13:15:22;;;;;;;0.10;0.10;;;;;;;15.34;100.00;101204.56;10607927;27;20043;-77
2022/10/15 13:20:36;;;;;;;0.10;0.10;;;;;;;15.48;100.00;101205.59;10626577;27;20054;-79
2022/10/15 13:25:38;;;;;;;0.22;0.10;;;;;;;15.53;100.00;101211.69;10607398;27;20051;-79
2022/10/15 13:30:47;;;;;;;0.22;0.22;;;;;;;15.65;100.00;101226.53;10596545;27;20043;-79
2022/10/15 13:35:49;;;;;;;0.00;0.00;;;;;;;15.79;100.00;101239.66;10607342;27;20428;-80
2022/10/15 13:40:52;;;;;;;0.13;0.10;;;;;;;15.99;100.00;101226.00;10594259;27;20457;-79
2022/10/15 13:45:56;;;;;;;1.00;0.45;;;;;;;16.04;100.00;101208.75;10616320;27;20043;-79
2022/10/15 13:51:04;;;;;;;0.40;0.30;;;;;;;15.92;100.00;101193.03;10607346;27;20043;-79
2022/10/15 13:57:19;;;;;;;0.40;0.40;;;;;;;16.19;100.00;101166.38;10623712;27;20065;-80
2022/10/15 14:03:08;;;;;;;0.65;0.30;;;;;;;16.16;100.00;101151.66;10212845;29;20051;-77
2022/10/15 14:08:24;;;;;;;0.40;0.20;;;;;;;16.29;100.00;101120.50;10214802;29;20077;-78
2022/10/15 14:13:27;;;;;;;0.00;0.00;;;;;;;16.43;100.00;101087.66;10436566;28;20056;-78
2022/10/15 14:18:33;;;;;;;0.35;0.22;;;;;;;16.46;100.00;101071.19;10453359;28;20139;-78
2022/10/15 14:23:34;;;;;;;0.08;0.08;;;;;;;16.59;100.00;101040.91;10436087;28;20139;-78
2022/10/15 14:28:37;;;;;;;0.22;0.20;;;;;;;16.47;100.00;101000.13;10447134;28;20496;-79
2022/10/15 14:33:42;;;;;;;0.10;0.10;;;;;;;16.43;100.00;100978.44;10431152;28;20069;-78
2022/10/15 14:38:50;;;;;;;0.38;0.17;;;;;;;16.42;100.00;100976.69;10503650;28;20490;-78
2022/10/15 14:44:09;;;;;;;0.10;0.10;;;;;;;16.47;100.00;100984.50;10574295;27;20078;-77
2022/10/15 15:02:41;;;;;;;0.38;0.32;;;;;;;16.08;100.00;100979.19;10594501;28;19990;-77
2022/10/15 15:08:08;;;;;;;0.22;0.22;;;;;;;15.45;100.00;100953.69;10618673;28;20127;-79
2022/10/15 15:13:20;;;;;;;0.38;0.35;;;;;;;15.35;100.00;100954.50;10602410;28;20126;-79
2022/10/15 15:19:12;;;;;;;0.25;0.10;;;;;;;15.42;100.00;100950.22;10622365;27;20541;-78
2022/10/15 15:24:15;;;;;;;0.10;0.10;;;;;;;15.30;100.00;100938.91;10607531;27;20134;-77
2022/10/15 15:29:19;;;;;;;0.63;0.32;;;;;;;15.16;100.00;100931.00;10617605;27;20039;-78
2022/10/15 15:34:22;;;;;;;0.30;0.20;;;;;;;15.14;100.00;100932.75;10652404;27;20043;-78
2022/10/15 15:39:30;;;;;;;0.10;0.10;;;;;;;14.99;100.00;100922.25;10611466;27;20490;-78
2022/10/15 15:44:57;;;;;;;1.00;0.40;;;;;;;14.90;100.00;100934.28;10619955;27;20074;-78
2022/10/15 15:49:58;;;;;;;0.63;0.10;;;;;;;14.80;100.00;100940.22;10630499;27;20103;-78
2022/10/15 15:55:00;;;;;;;2.00;0.93;;;;;;;14.76;100.00;100954.03;10633246;27;20063;-79
2022/10/15 16:00:04;;;;;;;0.00;0.00;;;;;;;14.77;100.00;100962.69;10629478;27;20126;-78
2022/10/15 16:05:08;;;;;;;0.57;0.40;;;;;;;14.69;100.00;100967.81;10629779;27;20041;-78
2022/10/15 16:10:10;;;;;;;0.43;0.28;;;;;;;14.71;100.00;100968.66;10620177;27;20047;-78
2022/10/15 16:15:12;;;;;;;0.20;0.20;;;;;;;14.63;100.00;100954.75;10620467;27;20552;-78
2022/10/15 16:20:15;;;;;;;0.10;0.10;;;;;;;14.57;100.00;100950.38;10612106;27;20053;-77
2022/10/15 16:25:18;;;;;;;1.65;0.17;;;;;;;14.52;100.00;100952.03;10629245;27;20054;-78
2022/10/15 16:30:19;;;;;;;0.30;0.30;;;;;;;14.41;100.00;100967.44;10610257;27;20074;-78
2022/10/15 16:35:21;;;;;;;0.22;0.10;;;;;;;14.31;100.00;100953.53;10628861;27;20490;-78
2022/10/15 16:40:23;;;;;;;0.10;0.10;;;;;;;14.12;100.00;100968.00;10628953;27;20043;-77
2022/10/15 16:45:24;;;;;;;0.05;0.03;;;;;;;13.98;100.00;100977.31;10610635;27;20039;-78
2022/10/15 16:50:27;;;;;;;0.28;0.17;;;;;;;13.85;100.00;100995.28;10610274;27;20126;-77
2022/10/15 16:55:31;;;;;;;0.03;0.03;;;;;;;13.75;100.00;101020.19;10628044;27;20054;-77
2022/10/15 17:00:32;;;;;;;0.55;0.10;;;;;;;13.70;100.00;101020.94;10604998;27;20039;-77
2022/10/15 17:05:34;;;;;;;0.00;0.00;;;;;;;13.54;100.00;101041.44;10610750;27;20050;-77
2022/10/15 17:10:41;;;;;;;1.08;0.20;;;;;;;13.39;100.00;101051.53;10592394;27;20043;-77
2022/10/15 17:15:42;;;;;;;0.00;0.00;;;;;;;13.11;100.00;101077.75;10608719;27;20502;-77
2022/10/15 17:20:48;;;;;;;1.48;0.93;;;;;;;13.08;100.00;101098.41;10608596;27;20054;-76
2022/10/15 17:25:49;;;;;;;0.00;0.00;;;;;;;12.99;100.00;101101.66;10614197;27;20490;-77
2022/10/15 17:30:51;;;;;;;0.00;0.00;;;;;;;12.88;100.00;101110.94;10601804;27;20039;-76
2022/10/15 17:35:53;;;;;;;0.00;0.00;;;;;;;12.92;100.00;101104.97;10605768;27;20088;-75
2022/10/15 17:40:54;;;;;;;0.17;0.10;;;;;;;12.81;100.00;101097.00;10610789;27;20118;-76
2022/10/15 17:46:05;;;;;;;0.25;0.10;;;;;;;12.74;100.00;101100.31;10593640;27;20035;-76
2022/10/15 17:51:10;;;;;;;0.10;0.10;;;;;;;12.62;100.00;101092.31;10626072;27;20043;-76
2022/10/15 17:56:23;;;;;;;0.10;0.10;;;;;;;12.52;100.00;101088.69;10617755;27;20150;-76
2022/10/15 18:01:59;;;;;;;0.25;0.10;;;;;;;12.36;100.00;101095.25;10623992;27;20046;-76
2022/10/15 18:07:02;;;;;;;0.20;0.00;;;;;;;12.17;100.00;101114.63;10589357;27;20100;-77
2022/10/15 18:12:04;;;;;;;0.95;0.30;;;;;;;11.99;100.00;101136.59;10624830;27;20073;-77
2022/10/15 18:17:06;;;;;;;0.00;0.00;;;;;;;12.07;100.00;101144.50;10598806;27;20041;-77
2022/10/15 18:22:08;;;;;;;0.73;0.50;;;;;;;11.94;100.00;101153.66;10624653;27;20047;-77
2022/10/15 18:27:10;;;;;;;0.32;0.28;;;;;;;11.82;100.00;101163.66;10595001;27;20043;-77
2022/10/15 18:32:11;;;;;;;0.10;0.10;;;;;;;11.74;100.00;101181.56;10624165;27;20051;-76
2022/10/15 18:37:13;;;;;;;0.63;0.47;;;;;;;11.77;100.00;101191.09;10623980;27;20042;-76
2022/10/15 18:42:14;;;;;;;0.35;0.20;;;;;;;11.82;100.00;101192.06;10623657;27;20070;-76
2022/10/15 18:47:16;;;;;;;0.80;0.40;;;;;;;11.87;100.00;101193.06;10623446;28;20035;-77
2022/10/15 18:52:18;;;;;;;0.10;0.10;;;;;;;11.91;100.00;101194.88;10629607;27;20468;-77
2022/10/15 18:57:39;;;;;;;0.30;0.30;;;;;;;11.78;100.00;101187.69;10612070;27;20031;-76
2022/10/15 19:03:03;;;;;;;0.88;0.30;;;;;;;11.75;100.00;101181.59;10632095;27;20045;-76
2022/10/15 19:08:05;;;;;;;0.20;0.20;;;;;;;11.77;100.00;101185.91;10617199;27;20081;-77
2022/10/15 19:13:07;;;;;;;0.10;0.10;;;;;;;11.66;100.00;101194.25;10590376;27;20130;-76
2022/10/15 19:18:10;;;;;;;0.45;0.20;;;;;;;11.83;100.00;101196.41;10631296;27;20096;-77
2022/10/15 19:23:11;;;;;;;0.43;0.30;;;;;;;11.83;100.00;101194.72;10594976;27;20051;-76
2022/10/15 19:28:13;;;;;;;0.88;0.45;;;;;;;11.88;100.00;101205.13;10623216;27;20035;-77
2022/10/15 19:33:15;;;;;;;0.10;0.10;;;;;;;11.80;100.00;101206.66;10612297;27;20042;-76
2022/10/15 19:38:17;;;;;;;0.32;0.20;;;;;;;11.81;100.00;101198.94;10612023;27;20562;-76
2022/10/15 19:43:20;;;;;;;0.20;0.15;;;;;;;11.81;100.00;101192.91;10611202;27;20522;-76
2022/10/15 19:48:23;;;;;;;0.43;0.28;;;;;;;11.73;100.00;101190.13;10610909;27;20074;-76
2022/10/15 19:53:25;;;;;;;0.55;0.20;;;;;;;11.81;100.00;101182.56;10611079;27;20043;-77
2022/10/15 19:58:27;;;;;;;1.25;0.50;;;;;;;11.79;100.00;101185.13;10611130;27;20035;-76
2022/10/15 20:03:32;;;;;;;0.63;0.25;;;;;;;11.82;100.00;101174.00;10628494;27;20045;-76
2022/10/15 20:08:36;;;;;;;0.70;0.47;;;;;;;11.93;100.00;101163.94;10610653;27;20043;-76
2022/10/15 20:13:38;;;;;;;0.28;0.10;;;;;;;11.88;100.00;101153.50;10594242;27;20066;-76
2022/10/15 20:18:40;;;;;;;0.40;0.25;;;;;;;11.86;100.00;101155.19;10624534;27;20035;-76
2022/10/15 20:23:43;;;;;;;0.35;0.32;;;;;;;11.80;100.00;101155.03;10629371;27;20118;-76
2022/10/15 20:28:45;;;;;;;0.00;0.00;;;;;;;11.77;100.00;101168.72;10621679;27;20043;-77
2022/10/15 20:33:47;;;;;;;0.20;0.20;;;;;;;12.01;100.00;101170.19;10652167;27;20031;-77
2022/10/15 20:38:48;;;;;;;0.77;0.20;;;;;;;11.97;100.00;101164.09;10618805;27;20059;-76
2022/10/15 20:43:56;;;;;;;0.47;0.47;;;;;;;12.03;100.00;101166.81;10626859;27;20070;-76
2022/10/15 20:49:01;;;;;;;0.17;0.17;;;;;;;12.08;100.00;101160.91;10604124;27;20467;-77
2022/10/15 20:54:11;;;;;;;0.28;0.28;;;;;;;11.99;100.00;101177.91;10627192;27;20122;-77
2022/10/15 20:59:13;;;;;;;0.25;0.10;;;;;;;11.93;100.00;101182.91;10602256;27;20114;-76
2022/10/15 21:04:14;;;;;;;0.93;0.35;;;;;;;11.78;100.00;101198.84;10609098;27;20146;-77
2022/10/15 21:09:42;;;;;;;0.60;0.40;;;;;;;11.87;100.00;101206.84;10627104;27;20042;-76
2022/10/15 21:14:49;;;;;;;0.10;0.10;;;;;;;11.84;100.00;101199.00;10607141;27;20381;-76
2022/10/15 21:19:51;;;;;;;0.90;0.15;;;;;;;11.81;100.00;101214.44;10613907;27;20047;-77
2022/10/15 21:24:53;;;;;;;0.47;0.30;;;;;;;11.87;100.00;101231.81;10626329;27;20410;-76
2022/10/15 21:29:55;;;;;;;0.85;0.45;;;;;;;11.91;100.00;101231.03;10620937;27;20050;-76
2022/10/15 21:34:56;;;;;;;0.40;0.40;;;;;;;11.94;100.00;101245.72;10614565;27;20082;-76
2022/10/15 21:39:58;;;;;;;0.40;0.15;;;;;;;11.94;100.00;101251.78;10620143;27;20359;-76
2022/10/15 21:45:00;;;;;;;2.25;1.17;;;;;;;12.00;100.00;101251.06;10614351;27;20483;-76
2022/10/15 21:50:01;;;;;;;0.05;0.05;;;;;;;12.01;100.00;101248.56;10606819;27;20050;-75
2022/10/15 21:55:03;;;;;;;0.52;0.30;;;;;;;11.97;100.00;101251.88;10625308;27;20035;-76
2022/10/15 22:00:10;;;;;;;0.10;0.10;;;;;;;12.02;100.00;101252.88;10606378;27;20054;-76
2022/10/15 22:05:15;;;;;;;3.03;0.57;;;;;;;12.11;100.00;101253.94;10625069;27;20058;-76
2022/10/15 22:10:17;;;;;;;0.38;0.25;;;;;;;11.98;100.00;101243.31;10606555;27;20039;-77
2022/10/15 22:15:19;;;;;;;0.00;0.00;;;;;;;11.95;100.00;101258.66;10606469;27;20134;-77
2022/10/15 22:20:20;;;;;;;0.35;0.20;;;;;;;11.83;100.00;101245.44;10606001;27;20122;-76
2022/10/15 22:25:25;;;;;;;0.05;0.05;;;;;;;11.74;100.00;101264.16;10589062;27;20552;-77
2022/10/15 22:30:27;;;;;;;0.32;0.22;;;;;;;11.68;100.00;101257.13;10624465;27;20027;-77
2022/10/15 22:35:28;;;;;;;0.25;0.20;;;;;;;11.66;100.00;101261.34;10624289;27;20130;-77
2022/10/15 22:40:30;;;;;;;0.10;0.10;;;;;;;11.58;100.00;101270.59;10602460;27;20486;-77
2022/10/15 22:45:31;;;;;;;0.68;0.30;;;;;;;11.51;100.00;101261.81;10623468;27;20047;-78
2022/10/15 22:50:33;;;;;;;0.00;0.00;;;;;;;11.38;100.00;101264.91;10617130;28;20125;-77
2022/10/15 22:55:35;;;;;;;0.17;0.15;;;;;;;11.43;100.00;101271.91;10607723;28;20516;-77
2022/10/15 23:00:36;;;;;;;0.50;0.40;;;;;;;11.38;100.00;101276.06;10622973;28;20043;-77
2022/10/15 23:05:41;;;;;;;0.20;0.10;;;;;;;11.42;100.00;101275.34;10623241;28;20035;-77
2022/10/15 23:16:50;;;;;;;0.00;0.00;;;;;;;11.38;100.00;101282.97;10608659;27;20066;-77
2022/10/15 23:21:56;;;;;;;0.30;0.20;;;;;;;11.31;100.00;101289.63;10623626;28;20063;-77
2022/10/15 23:26:58;;;;;;;0.20;0.20;;;;;;;11.34;100.00;101292.31;10594318;28;20114;-77
2022/10/15 23:31:59;;;;;;;0.30;0.28;;;;;;;11.34;100.00;101299.16;10614937;28;20491;-78
2022/10/15 23:37:01;;;;;;;0.50;0.40;;;;;;;11.31;100.00;101299.09;10618383;27;20051;-77